PWSweather.com
Personal Weather Stations
Station Observations
RADILLY
Mcmurray, PA 15317

Mcmurray, PA 15317

Lat: 40.288, Lon: -80.095

Elevation: 1061

Station Type: Ambient WS-2080

http://dillys.org/wx/

Latest ConditionsUpdated 5:15:00 PM EST Sunday, Jan 19, 2020
Currently Today's Max Today's Min Today's Average
Temperature 19.0°F-7.2°C 39.6°F4.2°C 19.0°F-7.2°C 27.3°F-2.6°C
Dew Point 6.7°F-14.1°C 29.9°F-1.2°C 5.7°F-14.6°C 16.0°F-8.9°C
Winds 8.3 mph W13.4 kmh W 11.4 mph -18.3 kmh - - 6.9 mph 11.1 kmh
Wind Gusts 13.0 mph20.9 kmh 21.3 mph34.3 kmh - -
Humidity 58% 79% 54% 62%
Pressure 30.18 in1022.0 mb 30.18 in1022.0 mb 29.79 in1008.8 mb -
Hour Temp Dew Point Humidity Winds Wind Gusts Pressure Precip Precip Rate Daily Precip Total
05:15 PM 19.0°F-7.2°C 6.7°F-14.1°C 58% 8.3 mph W13.4 kmh W 13.0 mph20.9 kmh 30.18 in1022.0 mb 0.00 in0.0 mm 0.00 in0.0 mm 0.00 in0.0 mm
05:00 PM 19.2°F-7.1°C 5.7°F-14.6°C 55% 6.0 mph W9.7 kmh W 9.8 mph15.8 kmh 30.18 in1022.0 mb 0.00 in0.0 mm 0.00 in0.0 mm 0.00 in0.0 mm
04:45 PM 19.6°F-6.9°C 6.4°F-14.2°C 56% 4.5 mph WSW7.2 kmh WSW 12.1 mph19.5 kmh 30.16 in1021.3 mb 0.00 in0.0 mm 0.00 in0.0 mm 0.00 in0.0 mm
04:30 PM 19.8°F-6.8°C 6.2°F-14.3°C 55% 4.5 mph W7.2 kmh W 12.1 mph19.5 kmh 30.16 in1021.3 mb 0.00 in0.0 mm 0.00 in0.0 mm 0.00 in0.0 mm
04:15 PM 20.1°F-6.6°C 6.5°F-14.2°C 55% 5.4 mph WNW8.7 kmh WNW 9.8 mph15.8 kmh 30.16 in1021.3 mb 0.00 in0.0 mm 0.00 in0.0 mm 0.00 in0.0 mm
04:00 PM 20.3°F-6.5°C 6.7°F-14.1°C 55% 3.8 mph WSW6.1 kmh WSW 10.7 mph17.2 kmh 30.15 in1021.0 mb 0.00 in0.0 mm 0.00 in0.0 mm 0.00 in0.0 mm
03:45 PM 20.7°F-6.3°C 7.0°F-13.9°C 55% 5.4 mph WSW8.7 kmh WSW 12.1 mph19.5 kmh 30.15 in1021.0 mb 0.00 in0.0 mm 0.00 in0.0 mm 0.00 in0.0 mm
03:30 PM 20.7°F-6.3°C 7.0°F-13.9°C 55% 6.0 mph W9.7 kmh W 14.5 mph23.3 kmh 30.13 in1020.3 mb 0.00 in0.0 mm 0.00 in0.0 mm 0.00 in0.0 mm
03:15 PM 21.2°F-6.0°C 7.1°F-13.8°C 54% 5.4 mph WSW8.7 kmh WSW 9.2 mph14.8 kmh 30.12 in1020.0 mb 0.00 in0.0 mm 0.00 in0.0 mm 0.00 in0.0 mm
03:00 PM 21.2°F-6.0°C 7.1°F-13.8°C 54% 6.9 mph W11.1 kmh W 13.0 mph20.9 kmh 30.11 in1019.6 mb 0.00 in0.0 mm 0.00 in0.0 mm 0.00 in0.0 mm
02:45 PM 21.4°F-5.9°C 7.7°F-13.5°C 55% 6.9 mph W11.1 kmh W 13.0 mph20.9 kmh 30.10 in1019.3 mb 0.00 in0.0 mm 0.00 in0.0 mm 0.00 in0.0 mm
02:30 PM 21.7°F-5.7°C 9.2°F-12.7°C 58% 3.8 mph W6.1 kmh W 9.2 mph14.8 kmh 30.09 in1019.0 mb 0.00 in0.0 mm 0.00 in0.0 mm 0.00 in0.0 mm
02:15 PM 21.7°F-5.7°C 10.3°F-12.1°C 61% 6.0 mph W9.7 kmh W 12.1 mph19.5 kmh 30.08 in1018.6 mb 0.00 in0.0 mm 0.00 in0.0 mm 0.00 in0.0 mm
02:00 PM 21.9°F-5.6°C 10.5°F-11.9°C 61% 6.9 mph W11.1 kmh W 15.2 mph24.5 kmh 30.10 in1019.3 mb 0.00 in0.0 mm 0.00 in0.0 mm 0.00 in0.0 mm
01:45 PM 22.6°F-5.2°C 10.4°F-12.0°C 59% 8.3 mph W13.4 kmh W 13.6 mph21.9 kmh 30.09 in1019.0 mb 0.00 in0.0 mm 0.00 in0.0 mm 0.00 in0.0 mm
01:30 PM 23.0°F-5.0°C 10.0°F-12.2°C 57% 9.2 mph WSW14.8 kmh WSW 13.6 mph21.9 kmh 30.08 in1018.6 mb 0.00 in0.0 mm 0.00 in0.0 mm 0.00 in0.0 mm
01:15 PM 22.6°F-5.2°C 11.2°F-11.6°C 61% 5.4 mph W8.7 kmh W 13.0 mph20.9 kmh 30.08 in1018.6 mb 0.00 in0.0 mm 0.00 in0.0 mm 0.00 in0.0 mm
01:00 PM 22.6°F-5.2°C 12.3°F-10.9°C 64% 6.9 mph WSW11.1 kmh WSW 13.6 mph21.9 kmh 30.07 in1018.3 mb 0.00 in0.0 mm 0.00 in0.0 mm 0.00 in0.0 mm
12:45 PM 23.2°F-4.9°C 12.1°F-11.1°C 62% 9.2 mph WSW14.8 kmh WSW 15.2 mph24.5 kmh 30.08 in1018.6 mb 0.00 in0.0 mm 0.00 in0.0 mm 0.00 in0.0 mm
12:30 PM 23.7°F-4.6°C 12.6°F-10.8°C 62% 5.4 mph SW8.7 kmh SW 12.1 mph19.5 kmh 30.07 in1018.3 mb 0.00 in0.0 mm 0.00 in0.0 mm 0.00 in0.0 mm
12:15 PM 23.7°F-4.6°C 13.3°F-10.4°C 64% 6.9 mph WSW11.1 kmh WSW 13.0 mph20.9 kmh 30.07 in1018.3 mb 0.00 in0.0 mm 0.00 in0.0 mm 0.00 in0.0 mm
12:00 PM 23.5°F-4.7°C 13.5°F-10.3°C 65% 6.9 mph WSW11.1 kmh WSW 10.7 mph17.2 kmh 30.07 in1018.3 mb 0.00 in0.0 mm 0.00 in0.0 mm 0.00 in0.0 mm
11:45 AM 23.7°F-4.6°C 14.0°F-10.0°C 66% 9.2 mph WSW14.8 kmh WSW 13.0 mph20.9 kmh 30.06 in1017.9 mb 0.00 in0.0 mm 0.00 in0.0 mm 0.00 in0.0 mm
11:30 AM 23.7°F-4.6°C 13.7°F-10.2°C 65% 10.7 mph WSW17.2 kmh WSW 14.5 mph23.3 kmh 30.07 in1018.3 mb 0.00 in0.0 mm 0.00 in0.0 mm 0.00 in0.0 mm
11:15 AM 24.3°F-4.3°C 14.5°F-9.7°C 66% 5.4 mph WSW8.7 kmh WSW 9.8 mph15.8 kmh 30.06 in1017.9 mb 0.00 in0.0 mm 0.00 in0.0 mm 0.00 in0.0 mm
11:00 AM 24.6°F-4.1°C 14.5°F-9.7°C 65% 4.5 mph WSW7.2 kmh WSW 9.2 mph14.8 kmh 30.07 in1018.3 mb 0.00 in0.0 mm 0.00 in0.0 mm 0.00 in0.0 mm
10:45 AM 24.6°F-4.1°C 13.8°F-10.1°C 63% 6.0 mph SW9.7 kmh SW 9.8 mph15.8 kmh 30.05 in1017.6 mb 0.00 in0.0 mm 0.00 in0.0 mm 0.00 in0.0 mm
10:30 AM 24.6°F-4.1°C 13.1°F-10.5°C 61% 5.4 mph W8.7 kmh W 13.0 mph20.9 kmh 30.04 in1017.3 mb 0.00 in0.0 mm 0.00 in0.0 mm 0.00 in0.0 mm
10:15 AM 24.6°F-4.1°C 13.1°F-10.5°C 61% 6.9 mph WSW11.1 kmh WSW 12.1 mph19.5 kmh 30.03 in1016.9 mb 0.00 in0.0 mm 0.00 in0.0 mm 0.00 in0.0 mm
10:00 AM 24.4°F-4.2°C 12.9°F-10.6°C 61% 4.5 mph WSW7.2 kmh WSW 12.1 mph19.5 kmh 30.03 in1016.9 mb 0.00 in0.0 mm 0.00 in0.0 mm 0.00 in0.0 mm
09:45 AM 24.3°F-4.3°C 12.7°F-10.7°C 61% 8.3 mph WSW13.4 kmh WSW 10.7 mph17.2 kmh 30.03 in1016.9 mb 0.00 in0.0 mm 0.00 in0.0 mm 0.00 in0.0 mm
09:30 AM 24.3°F-4.3°C 12.7°F-10.7°C 61% 6.9 mph WSW11.1 kmh WSW 10.7 mph17.2 kmh 30.02 in1016.6 mb 0.00 in0.0 mm 0.00 in0.0 mm 0.00 in0.0 mm
09:15 AM 24.3°F-4.3°C 12.7°F-10.7°C 61% 7.6 mph WSW12.2 kmh WSW 11.4 mph18.3 kmh 30.02 in1016.6 mb 0.00 in0.0 mm 0.00 in0.0 mm 0.00 in0.0 mm
09:00 AM 24.4°F-4.2°C 13.3°F-10.4°C 62% 8.3 mph WSW13.4 kmh WSW 12.1 mph19.5 kmh 30.01 in1016.3 mb 0.00 in0.0 mm 0.00 in0.0 mm 0.00 in0.0 mm
08:45 AM 24.3°F-4.3°C 13.5°F-10.3°C 63% 7.6 mph WSW12.2 kmh WSW 12.1 mph19.5 kmh 30.01 in1016.3 mb 0.00 in0.0 mm 0.00 in0.0 mm 0.00 in0.0 mm
08:30 AM 24.8°F-4.0°C 12.9°F-10.6°C 60% 6.9 mph WSW11.1 kmh WSW 15.2 mph24.5 kmh 30.00 in1015.9 mb 0.00 in0.0 mm 0.00 in0.0 mm 0.00 in0.0 mm
08:15 AM 25.5°F-3.6°C 13.2°F-10.4°C 59% 8.3 mph SW13.4 kmh SW 12.1 mph19.5 kmh 30.00 in1015.9 mb 0.00 in0.0 mm 0.00 in0.0 mm 0.00 in0.0 mm
08:00 AM 26.1°F-3.3°C 14.1°F-9.9°C 60% 3.8 mph SW6.1 kmh SW 9.2 mph14.8 kmh 29.99 in1015.6 mb 0.00 in0.0 mm 0.00 in0.0 mm 0.00 in0.0 mm
07:45 AM 26.4°F-3.1°C 14.4°F-9.8°C 60% 6.9 mph WSW11.1 kmh WSW 11.4 mph18.3 kmh 29.98 in1015.2 mb 0.00 in0.0 mm 0.00 in0.0 mm 0.00 in0.0 mm
07:30 AM 26.4°F-3.1°C 14.4°F-9.8°C 60% 7.6 mph WSW12.2 kmh WSW 15.2 mph24.5 kmh 29.98 in1015.2 mb 0.00 in0.0 mm 0.00 in0.0 mm 0.00 in0.0 mm
07:15 AM 27.0°F-2.8°C 14.1°F-9.9°C 58% 7.6 mph WSW12.2 kmh WSW 14.5 mph23.3 kmh 29.98 in1015.2 mb 0.00 in0.0 mm 0.00 in0.0 mm 0.00 in0.0 mm
07:00 AM 27.3°F-2.6°C 13.7°F-10.2°C 56% 7.6 mph WSW12.2 kmh WSW 13.0 mph20.9 kmh 29.98 in1015.2 mb 0.00 in0.0 mm 0.00 in0.0 mm 0.00 in0.0 mm
06:45 AM 27.5°F-2.5°C 13.4°F-10.3°C 55% 6.0 mph W9.7 kmh W 15.9 mph25.6 kmh 29.97 in1014.9 mb 0.00 in0.0 mm 0.00 in0.0 mm 0.00 in0.0 mm
06:30 AM 28.0°F-2.2°C 13.5°F-10.3°C 54% 9.8 mph WSW15.8 kmh WSW 13.6 mph21.9 kmh 29.96 in1014.6 mb 0.00 in0.0 mm 0.00 in0.0 mm 0.00 in0.0 mm
06:15 AM 28.8°F-1.8°C 15.0°F-9.4°C 56% 9.8 mph SW15.8 kmh SW 14.5 mph23.3 kmh 29.95 in1014.2 mb 0.00 in0.0 mm 0.00 in0.0 mm 0.00 in0.0 mm
06:00 AM 29.3°F-1.5°C 16.7°F-8.5°C 59% 11.4 mph WSW18.3 kmh WSW 15.9 mph25.6 kmh 29.94 in1013.9 mb 0.00 in0.0 mm 0.00 in0.0 mm 0.00 in0.0 mm
05:45 AM 29.7°F-1.3°C 18.2°F-7.7°C 62% 6.0 mph WSW9.7 kmh WSW 12.1 mph19.5 kmh 29.93 in1013.5 mb 0.00 in0.0 mm 0.00 in0.0 mm 0.00 in0.0 mm
05:30 AM 30.0°F-1.1°C 19.3°F-7.1°C 64% 8.3 mph WSW13.4 kmh WSW 13.6 mph21.9 kmh 29.93 in1013.5 mb 0.00 in0.0 mm 0.00 in0.0 mm 0.00 in0.0 mm
05:15 AM 30.6°F-0.8°C 19.1°F-7.2°C 62% 6.9 mph W11.1 kmh W 15.2 mph24.5 kmh 29.92 in1013.2 mb 0.00 in0.0 mm 0.00 in0.0 mm 0.00 in0.0 mm
05:00 AM 30.7°F-0.7°C 19.2°F-7.1°C 62% 6.9 mph W11.1 kmh W 13.0 mph20.9 kmh 29.91 in1012.9 mb 0.00 in0.0 mm 0.00 in0.0 mm 0.00 in0.0 mm
04:45 AM 30.9°F-0.6°C 19.0°F-7.2°C 61% 4.5 mph WSW7.2 kmh WSW 12.1 mph19.5 kmh 29.90 in1012.5 mb 0.00 in0.0 mm 0.00 in0.0 mm 0.00 in0.0 mm
04:30 AM 31.1°F-0.5°C 19.6°F-6.9°C 62% 6.0 mph WSW9.7 kmh WSW 11.4 mph18.3 kmh 29.90 in1012.5 mb 0.00 in0.0 mm 0.00 in0.0 mm 0.00 in0.0 mm
04:15 AM 31.1°F-0.5°C 19.2°F-7.1°C 61% 9.2 mph WSW14.8 kmh WSW 13.6 mph21.9 kmh 29.89 in1012.2 mb 0.00 in0.0 mm 0.00 in0.0 mm 0.00 in0.0 mm
04:00 AM 31.5°F-0.3°C 19.5°F-6.9°C 61% 11.4 mph WSW18.3 kmh WSW 18.3 mph29.5 kmh 29.90 in1012.5 mb 0.00 in0.0 mm 0.00 in0.0 mm 0.00 in0.0 mm
03:45 AM 31.6°F-0.2°C 20.1°F-6.6°C 62% 9.2 mph W14.8 kmh W 18.3 mph29.5 kmh 29.89 in1012.2 mb 0.00 in0.0 mm 0.00 in0.0 mm 0.00 in0.0 mm
03:30 AM 32.2°F0.1°C 21.0°F-6.1°C 63% 8.3 mph W13.4 kmh W 21.3 mph34.3 kmh 29.89 in1012.2 mb 0.00 in0.0 mm 0.00 in0.0 mm 0.00 in0.0 mm
03:15 AM 32.9°F0.5°C 23.8°F-4.6°C 69% 9.8 mph WSW15.8 kmh WSW 16.8 mph27.0 kmh 29.87 in1011.5 mb 0.00 in0.0 mm 0.00 in0.0 mm 0.00 in0.0 mm
03:00 AM 34.7°F1.5°C 24.9°F-3.9°C 67% 10.7 mph W17.2 kmh W 19.0 mph30.6 kmh 29.85 in1010.8 mb 0.00 in0.0 mm 0.00 in0.0 mm 0.00 in0.0 mm
02:45 AM 35.1°F1.7°C 25.2°F-3.8°C 67% 7.6 mph WSW12.2 kmh WSW 13.0 mph20.9 kmh 29.84 in1010.5 mb 0.00 in0.0 mm 0.00 in0.0 mm 0.00 in0.0 mm
02:30 AM 35.2°F1.8°C 27.1°F-2.7°C 72% 7.6 mph WSW12.2 kmh WSW 12.1 mph19.5 kmh 29.84 in1010.5 mb 0.00 in0.0 mm 0.00 in0.0 mm 0.00 in0.0 mm
02:15 AM 35.2°F1.8°C 29.4°F-1.4°C 79% 8.3 mph WSW13.4 kmh WSW 15.2 mph24.5 kmh 29.83 in1010.2 mb 0.00 in0.0 mm 0.00 in0.0 mm 0.00 in0.0 mm
02:00 AM 34.9°F1.6°C 29.0°F-1.7°C 79% 4.5 mph W7.2 kmh W 16.8 mph27.0 kmh 29.82 in1009.8 mb 0.00 in0.0 mm 0.00 in0.0 mm 0.00 in0.0 mm
01:45 AM 36.0°F2.2°C 29.8°F-1.2°C 78% 7.6 mph SW12.2 kmh SW 11.4 mph18.3 kmh 29.81 in1009.5 mb 0.00 in0.0 mm 0.00 in0.0 mm 0.00 in0.0 mm
01:30 AM 36.0°F2.2°C 29.8°F-1.2°C 78% 5.4 mph WSW8.7 kmh WSW 9.2 mph14.8 kmh 29.80 in1009.1 mb 0.00 in0.0 mm 0.00 in0.0 mm 0.00 in0.0 mm
01:15 AM 36.0°F2.2°C 28.8°F-1.8°C 75% 3.8 mph WSW6.1 kmh WSW 14.5 mph23.3 kmh 29.80 in1009.1 mb 0.00 in0.0 mm 0.00 in0.0 mm 0.00 in0.0 mm
01:00 AM 39.4°F4.1°C 29.3°F-1.5°C 67% 10.7 mph WSW17.2 kmh WSW 13.0 mph20.9 kmh 29.81 in1009.5 mb 0.00 in0.0 mm 0.00 in0.0 mm 0.00 in0.0 mm
12:45 AM 39.6°F4.2°C 29.1°F-1.6°C 66% 6.0 mph WSW9.7 kmh WSW 9.8 mph15.8 kmh 29.80 in1009.1 mb 0.00 in0.0 mm 0.00 in0.0 mm 0.00 in0.0 mm
12:30 AM 39.2°F4.0°C 29.9°F-1.2°C 69% 5.4 mph SW8.7 kmh SW 10.7 mph17.2 kmh 29.79 in1008.8 mb 0.00 in0.0 mm 0.00 in0.0 mm 0.00 in0.0 mm
12:15 AM 38.8°F3.8°C 29.9°F-1.2°C 70% 3.1 mph SW5.0 kmh SW 6.9 mph11.1 kmh 29.79 in1008.8 mb 0.00 in0.0 mm 0.00 in0.0 mm 0.00 in0.0 mm
12:00 AM 39.4°F4.1°C 29.7°F-1.3°C 68% 3.8 mph W6.1 kmh W 9.2 mph14.8 kmh 29.80 in1009.1 mb 0.00 in0.0 mm 0.00 in0.0 mm 0.00 in0.0 mm